createdAt,value
2023-03-22T11:18:16.580Z,18.13
2023-03-22T11:20:54.317Z,16.07
2023-03-22T11:23:21.743Z,15.02
2023-03-22T11:25:50.630Z,15.74
2023-03-22T11:28:26.798Z,16.52
2023-03-22T11:31:15.847Z,19.18
2023-03-22T11:34:01.666Z,20.78
2023-03-22T11:36:29.398Z,20.24
2023-03-22T11:39:00.726Z,20.88
2023-03-22T11:41:39.440Z,21.51
2023-03-22T11:44:10.707Z,20.20
2023-03-22T11:46:37.983Z,19.06
2023-03-22T11:49:08.884Z,19.41
2023-03-22T12:58:58.971Z,13.88
2023-03-22T13:01:35.082Z,13.82
2023-03-22T13:04:27.476Z,15.29
2023-03-22T13:07:15.156Z,16.59
2023-03-22T13:09:42.985Z,16.50
2023-03-22T13:12:18.647Z,17.76
2023-03-22T13:14:56.167Z,19.01
2023-03-22T13:17:22.764Z,16.63
2023-03-22T13:19:58.549Z,16.76
2023-03-22T13:22:50.934Z,15.96
2023-03-22T13:25:18.855Z,16.21
2023-03-22T13:27:45.432Z,15.47
2023-03-22T13:30:21.653Z,16.61
2023-03-22T13:32:54.508Z,16.41
2023-03-22T13:35:27.868Z,16.56
2023-03-22T13:38:01.946Z,15.70
2023-03-22T13:40:37.843Z,15.92
2023-03-22T13:43:16.970Z,15.80
2023-03-22T13:46:10.370Z,17.32
2023-03-22T13:49:17.131Z,17.60
2023-03-22T13:51:44.680Z,17.19
2023-03-22T13:54:14.887Z,16.84
2023-03-22T13:56:56.055Z,16.69
2023-03-22T13:59:29.789Z,16.38
2023-03-22T14:02:11.525Z,16.16
2023-03-22T14:04:55.985Z,16.29
2023-03-22T14:07:47.823Z,16.61
2023-03-22T14:10:20.120Z,16.24
2023-03-22T14:12:52.081Z,16.33
2023-03-22T14:15:26.817Z,16.01
2023-03-22T14:18:14.676Z,16.13
2023-03-22T14:20:42.110Z,16.57
